WHITEHORSE, YK current weather conditions

sailwx.info

Wind from 160 at 12 knots gusting 17

Air temperature -3.0° C
Visibility: greater than 34.8 NM
Dewpoint -8.0° C
Present weather: Low drifting snow.

Last reported at 2016-Feb-06 23:00 UTC.
Time now 2016-Feb-07 01:31 UTC

Location: N 60°43' W 135°04'.
View on Google Maps.

See reports from other nearby stations

  
Tides and Currents Weather Stations Pressure Air Temp Water Temp Dewpoint Dewpoint Depression Visibility Wind Speed Wind Dir Waves Ship Positions
date/time (UTC)wind fromknots sea level pressurealtimeterstation pressurevisibilityair tempwater tempwave heightnotes
2016-Feb-07 00:00 170 16 34.8-3.0 Low drifting snow.
2016-Feb-06 23:00 160 12 gusting 17 34.8-3.0 Low drifting snow.
2016-Feb-06 22:00 160 13 34.8-4.0 Low drifting snow.
2016-Feb-06 21:00 170 18 34.8-5.0 Low drifting snow.
2016-Feb-06 20:00 140 5 34.8-8.0
2016-Feb-06 19:00 150 7 34.8-11.0
2016-Feb-06 18:00 110 6 34.8-11.0
2016-Feb-06 17:00 140 10 34.8-11.0
2016-Feb-06 16:00 110 3 34.8-12.0
2016-Feb-06 15:00 150 9 13.0-12.0
2016-Feb-06 14:00 160 8 13.0-11.0
2016-Feb-06 13:00 100 3 13.0-12.0
2016-Feb-06 12:00 170 9 13.0-12.0
2016-Feb-06 11:00 220 2 13.0-9.0
2016-Feb-06 10:00 210 5 13.0-9.0
2016-Feb-06 09:00 190 7 13.0-7.0
2016-Feb-06 08:00 170 11 13.0-7.0
2016-Feb-06 07:00 170 11 13.0-7.0
2016-Feb-06 06:00 140 7 13.0-7.0 Low drifting snow.
2016-Feb-06 05:00 170 14 13.0-6.0 Low drifting snow.
2016-Feb-06 04:00 170 16 13.0-6.0 Low drifting snow.
2016-Feb-06 03:00 180 14 13.0-6.0 Low drifting snow.
2016-Feb-06 02:00 180 15 13.0-7.0 Low drifting snow.
2016-Feb-06 01:00 170 15 34.8-6.0 Low drifting snow.
2016-Feb-06 00:00 180 19 34.8-5.0 Low drifting snow.
2016-Feb-05 23:00 180 18 34.8-5.0 Low drifting snow.
2016-Feb-05 22:00 160 17 34.8-5.0 Low drifting snow.
2016-Feb-05 21:00 180 16 34.8-5.0 Low drifting snow.
2016-Feb-05 20:00 170 15 34.8-6.0 Low drifting snow.
2016-Feb-05 19:00 190 15 34.8-7.0 Low drifting snow.
2016-Feb-05 18:00 170 11 34.8-8.0 Low drifting snow.
2016-Feb-05 17:26 180 13 17.4-7.0 Low drifting snow.
2016-Feb-05 17:00 170 10 gusting 16 13.0-8.0 Low drifting snow.
2016-Feb-05 16:00 170 11 13.0-7.0
2016-Feb-05 15:00 180 14 13.0-7.0
2016-Feb-05 14:00 170 13 13.0-7.0
2016-Feb-05 13:20 13.0-7.0
2016-Feb-05 13:00 160 12 13.0-7.0
2016-Feb-05 12:00 13.0-8.0
2016-Feb-05 11:00 160 13 13.0-8.0
2016-Feb-05 10:00 080 3 13.0-7.0
2016-Feb-05 09:00 160 14 13.0-6.0
2016-Feb-05 08:00 170 13 13.0-6.0
2016-Feb-05 07:00 150 8 gusting 15 13.0-4.0
2016-Feb-05 06:00 170 19 gusting 25 13.0-3.0
2016-Feb-05 05:00 170 12 gusting 19 13.0-4.0
2016-Feb-05 04:00 160 17 gusting 24 13.0-3.0
2016-Feb-05 03:00 170 14 13.0-4.0
2016-Feb-05 02:00 170 11 26.1-4.0
2016-Feb-05 01:00 160 13 gusting 18 34.8-4.0